»·PEaware :: N149CD KVNY-KFUL

N149CD :: KVNY-KFUL

FLIGHT INFORMATION

Flight Status: Arrived
Operator: Privately registered:
United States
More flights under this callsign
Pilot: Nathan E. (30132)
Aircraft: CESSNA 172 SKYHAWK
(C172)
More flights by this aircraft type
Origin: KVNY Van Nuys
United States
Destination: KFUL Fullerton Mun
United States
More flights between these airports :: More routes between these airports
Route: +ADAMM3 ADAMM V394 SLI
File this flight plan on PilotEdge
Remarks: TEC route BURP19
Altitude:
(Current/Filed)
5,000ft
Speed:
(Current/Filed)
110kts
Departed: 11-Oct-20 04:51 PM
Arrived: 11-Oct-20 05:25 PM
Distance/Time
Traveled:
33nm/0:33
Distance/Time
To Go:
Arrived

Flight Plot

Page will automatically refresh every two minutes.

Flight plan parsing failed; only flown route is shown


Map Options




Map Legend


Flown Route
Filed Route
Departure Airport
Arrival Airport
Navaid (VOR, NDB)
Fix

Horizontal Profiles

Position Reports

Time Latitude Longitude Heading Altitude Ground
Speed
11-Oct-20 16:32 34.215500 -118.498360 358 806ft 0kts
11-Oct-20 16:33 34.215500 -118.498360 358 806ft 0kts
11-Oct-20 16:34 34.215500 -118.498360 358 806ft 0kts
11-Oct-20 16:35 34.215500 -118.498360 358 806ft 0kts
11-Oct-20 16:36 34.215500 -118.498360 358 806ft 0kts
11-Oct-20 16:37 34.215500 -118.498360 358 806ft 0kts
11-Oct-20 16:38 34.215500 -118.498360 358 806ft 0kts
11-Oct-20 16:39 34.215500 -118.498360 358 806ft 0kts
11-Oct-20 16:40 34.215500 -118.498360 358 806ft 0kts
11-Oct-20 16:41 34.215500 -118.498360 358 806ft 0kts
11-Oct-20 16:42 34.215500 -118.498360 358 806ft 0kts
11-Oct-20 16:43 34.216437 -118.497725 46 806ft 12kts
11-Oct-20 16:44 34.217410 -118.494447 101 806ft 10kts
11-Oct-20 16:45 34.218706 -118.492464 349 806ft 11kts
11-Oct-20 16:46 34.219336 -118.492210 98 806ft 0kts
11-Oct-20 16:47 34.219336 -118.492210 98 806ft 0kts
11-Oct-20 16:48 34.219336 -118.492210 98 806ft 0kts
11-Oct-20 16:49 34.219336 -118.492210 98 806ft 0kts
11-Oct-20 16:50 34.212553 -118.490637 176 827ft 75kts
11-Oct-20 16:51 34.191269 -118.488069 178 1661ft 76kts
11-Oct-20 16:52 34.177112 -118.472084 124 2543ft 74kts
11-Oct-20 16:53 34.170063 -118.449215 92 3348ft 77kts
11-Oct-20 16:55 34.171288 -118.423154 92 4117ft 77kts
11-Oct-20 16:56 34.173015 -118.397389 88 4837ft 77kts
11-Oct-20 16:57 34.175390 -118.365952 92 5010ft 109kts
11-Oct-20 16:58 34.172144 -118.329714 108 5008ft 107kts
11-Oct-20 16:59 34.162551 -118.295286 111 5017ft 108kts
11-Oct-20 17:00 34.152308 -118.260913 111 5016ft 109kts
11-Oct-20 17:01 34.141963 -118.226339 111 5014ft 109kts
11-Oct-20 17:02 34.131600 -118.191717 111 5013ft 109kts
11-Oct-20 17:03 34.121213 -118.157017 111 5011ft 110kts
11-Oct-20 17:04 34.110823 -118.122312 111 5010ft 110kts
11-Oct-20 17:05 34.100415 -118.087506 109 5009ft 110kts
11-Oct-20 17:06 34.097010 -118.050460 96 5011ft 111kts
11-Oct-20 17:07 34.094408 -118.013175 97 5015ft 111kts
11-Oct-20 17:08 34.091804 -117.975939 97 5019ft 111kts
11-Oct-20 17:09 34.089182 -117.938615 98 5023ft 112kts
11-Oct-20 17:10 34.086527 -117.900988 98 5028ft 112kts
11-Oct-20 17:11 34.083851 -117.863219 98 5032ft 113kts
11-Oct-20 17:12 34.081156 -117.825377 99 5034ft 114kts
11-Oct-20 17:12 34.075827 -117.795120 142 4898ft 108kts
11-Oct-20 17:14 34.042366 -117.785965 176 4304ft 107kts
11-Oct-20 17:14 34.017720 -117.784704 177 3885ft 107kts
11-Oct-20 17:15 33.987564 -117.783494 177 3375ft 108kts
11-Oct-20 17:16 33.957473 -117.782306 177 3017ft 109kts
11-Oct-20 17:17 33.926989 -117.781108 177 3011ft 109kts
11-Oct-20 17:18 33.906530 -117.804724 248 2710ft 115kts
11-Oct-20 17:19 33.898472 -117.842204 253 2636ft 117kts
11-Oct-20 17:20 33.891266 -117.879720 254 1963ft 112kts
11-Oct-20 17:21 33.884382 -117.915579 254 1282ft 109kts
11-Oct-20 17:22 33.878709 -117.945152 253 719ft 67kts
11-Oct-20 17:23 33.874565 -117.966681 253 294ft 63kts
11-Oct-20 17:24 33.871819 -117.979381 166 92ft 3kts
11-Oct-20 17:25 33.870816 -117.978951 88 93ft 0kts

Navigation Log

Ident Type
Flight plan parsing failed, navigation log unavailable